YHLM weather

Hillman Farm Airport
Western Australia, Australia

Public forecast

Using degrees Celsius for public forecast. Weather courtesy of forecast.io.

METAR (pilot weather report)

Closest report is Perth Jandakot Airport, 84.5 nm (156.4 km) NW. Retrieved 2019/05/20 01:30 UTC (26 minutes ago):

YPJT 200130Z AUTO 00000KT 9999 // SCT038 16/15 Q1016 RF00.0/000.0

TAF (pilot weather forecast)

Forecast is more than 6 hours old.

Closest forecast is Perth Jandakot Airport, 84.5 nm (156.4 km) NW. Retrieved 2019/05/19 18:00 UTC (8 hours ago):

TAF YPJT 191711Z 1918/2012 03010KT 9999 BKN045 FM191900 33008KT 9999 -SHRA FEW012 BKN020 BECMG 2000/2001 24008KT 9999 -SHRA BKN030 FM200400 24012KT 9999 BKN045 FM201100 VRB05KT 9999 FEW030 SCT040 TEMPO 1919/2001 3000 SHRA BKN008